Freeport, IL

9:48 AM CST on February 09, 2016 (GMT -0600)
APRSWXNET | | Change Station
CLOSE
Current Station
Personal Weather Station
Location: Freeport, IL
Elevation: 777 ft
Nearby Weather Stations

Elev 777 ft 42.33 °N, 89.63 °W | Updated 25 minutes ago

Overcast
Overcast
11 °F
Feels Like 1 °F
N
6
Wind Variable Wind from NE
Gusts 17.0 mph

Today
High -- | Low -- °F
--% Chance of Precip.
Yesterday
High -- | Low -- °F
Precip. -- in
Pressure 29.91 in
Visibility 7.0 miles
Clouds Scattered Clouds 1600 ft
Mostly Cloudy 3000 ft
Overcast 4200 ft
Windchill 1 °F
Dew Point 6 °F
Humidity 79%
Rainfall in
Snow Depth Not available.
7:03 AM 5:22 PM
New Moon, 1% visible
METAR KFEP 091535Z AUTO 34016G21KT 7SM SCT016 BKN030 OVC042 M11/M15 A2991 RMK AO2 T11101146
Pressure 29.91 in
Visibility 7.0 miles
Clouds Scattered Clouds 1600 ft
Mostly Cloudy 3000 ft
Overcast 4200 ft
Windchill 1 °F
Dew Point 6 °F
Humidity 79%
Rainfall in
Snow Depth Not available.
7:03 AM 5:22 PM
New Moon, 1% visible
METAR KFEP 091535Z AUTO 34016G21KT 7SM SCT016 BKN030 OVC042 M11/M15 A2991 RMK AO2 T11101146

10-Day Weather Forecast

Almanac

Astronomy

Feb. 09, 2016 Rise Set
Actual Time
Civil Twilight
Nautical Twilight
Astronomical Twilight
Moon
Length of Visible Light
Length of Day
Tomorrow will be .
, % of the Moon is Illuminated

Today's Extremes

State Highs State Lows

Community

WunderPhotos

Upload Photos

1,891,628 photos uploaded!

WunderBlog® & News

Nearby

Air Quality

  Air Quality AQ Index Pollutant
Not available.

Snow Depth

Station Depth Elevation

Earthquake Activity

City Distance Mag. Time & Date
Minimum magnitude displayed is 2.5.

Coastal Water Temperatures

Place Temperature

Stations

Nearby Weather Stations

Station Location Temp. Windchill Dew Point Humidity Wind Precip. Elev Updated Type
                   

Watches & Warnings

There are currently no watches in effect.